createdAt,value
2022-12-19T00:01:33.276Z,95.70
2022-12-19T00:04:01.247Z,95.80
2022-12-19T00:06:28.661Z,95.80
2022-12-19T00:08:56.009Z,95.70
2022-12-19T00:11:23.748Z,95.70
2022-12-19T00:13:51.075Z,95.80
2022-12-19T00:16:19.885Z,95.70
2022-12-19T00:18:47.338Z,95.70
2022-12-19T00:21:15.531Z,95.80
2022-12-19T00:23:42.699Z,95.70
2022-12-19T00:26:13.152Z,95.80
2022-12-19T00:28:40.780Z,95.80
2022-12-19T00:31:08.054Z,95.80
2022-12-19T00:33:34.972Z,95.80
2022-12-19T00:36:06.314Z,95.70
2022-12-19T00:38:33.486Z,95.70
2022-12-19T00:41:26.383Z,95.80
2022-12-19T00:44:01.231Z,95.80
2022-12-19T00:46:28.978Z,95.70
2022-12-19T00:48:55.821Z,95.70
2022-12-19T00:51:23.933Z,95.80
2022-12-19T00:53:51.411Z,95.70
2022-12-19T00:56:20.631Z,95.80
2022-12-19T00:58:47.787Z,95.70
2022-12-19T01:01:14.951Z,95.80
2022-12-19T01:03:58.146Z,95.70
2022-12-19T01:06:29.936Z,95.70
2022-12-19T01:08:56.766Z,95.80
2022-12-19T01:11:43.654Z,95.70
2022-12-19T01:14:12.135Z,95.80
2022-12-19T01:16:40.856Z,95.80
2022-12-19T01:19:07.940Z,95.80
2022-12-19T01:21:34.972Z,95.80
2022-12-19T01:24:01.984Z,95.80
2022-12-19T01:26:28.740Z,95.70
2022-12-19T01:28:55.600Z,95.80
2022-12-19T01:31:22.694Z,95.80
2022-12-19T01:33:49.486Z,95.80
2022-12-19T01:36:17.190Z,95.70
2022-12-19T01:38:43.904Z,95.80
2022-12-19T01:41:10.806Z,95.80
2022-12-19T01:43:57.281Z,95.80
2022-12-19T01:46:28.799Z,95.80
2022-12-19T01:48:56.626Z,95.80
2022-12-19T01:51:25.148Z,95.80
2022-12-19T01:53:57.812Z,95.80
2022-12-19T01:56:32.733Z,95.80
2022-12-19T01:59:05.756Z,95.80
2022-12-19T02:01:34.584Z,95.80
2022-12-19T02:04:02.507Z,95.80
2022-12-19T02:06:30.709Z,95.70
2022-12-19T02:08:57.447Z,95.80
2022-12-19T02:11:24.356Z,95.80
2022-12-19T02:13:51.110Z,95.80
2022-12-19T02:16:24.080Z,96.10
2022-12-19T02:19:23.006Z,95.80
2022-12-19T02:21:58.573Z,95.70
2022-12-19T02:24:35.120Z,95.70
2022-12-19T02:27:17.954Z,95.80
2022-12-19T02:30:10.593Z,95.80
2022-12-19T02:32:55.487Z,95.80
2022-12-19T02:35:31.410Z,95.80
2022-12-19T02:38:06.342Z,95.80
2022-12-19T02:40:41.771Z,95.80
2022-12-19T02:43:10.315Z,95.80
2022-12-19T02:45:38.613Z,95.80
2022-12-19T02:48:09.052Z,95.80
2022-12-19T02:50:40.545Z,95.80
2022-12-19T02:53:09.446Z,95.80
2022-12-19T02:56:06.066Z,95.80
2022-12-19T02:59:15.937Z,95.80
2022-12-19T03:01:49.049Z,95.80
2022-12-19T03:04:27.887Z,95.80
2022-12-19T03:07:17.753Z,95.80
2022-12-19T03:09:52.857Z,95.80
2022-12-19T03:12:25.790Z,95.80
2022-12-19T03:15:01.190Z,95.80
2022-12-19T03:17:28.491Z,95.80
2022-12-19T03:19:55.694Z,95.80
2022-12-19T03:22:22.518Z,95.80
2022-12-19T03:24:49.354Z,95.80
2022-12-19T03:27:27.955Z,95.80
2022-12-19T03:30:01.793Z,95.80
2022-12-19T03:32:29.693Z,95.80
2022-12-19T03:35:03.272Z,95.80
2022-12-19T03:37:32.542Z,95.80
2022-12-19T03:40:01.439Z,95.80
2022-12-19T03:42:48.353Z,95.80
2022-12-19T03:45:18.684Z,95.80
2022-12-19T03:47:51.055Z,95.80
2022-12-19T03:50:18.552Z,95.80
2022-12-19T03:52:54.035Z,95.80
2022-12-19T03:55:46.743Z,95.80
2022-12-19T03:58:15.170Z,95.80
2022-12-19T04:00:43.907Z,95.80
2022-12-19T04:03:11.457Z,95.80
2022-12-19T04:05:39.203Z,95.80
2022-12-19T04:08:07.739Z,95.70
2022-12-19T04:10:54.711Z,95.70
2022-12-19T04:13:25.831Z,95.80
2022-12-19T04:16:08.015Z,95.80
2022-12-19T04:18:35.231Z,95.80
2022-12-19T04:21:22.341Z,95.80
2022-12-19T04:23:52.512Z,95.80
2022-12-19T04:26:20.074Z,95.80
2022-12-19T04:28:51.935Z,95.80
2022-12-19T04:31:20.054Z,95.80
2022-12-19T04:33:46.831Z,95.90
2022-12-19T04:36:13.729Z,95.80
2022-12-19T04:38:40.644Z,95.80
2022-12-19T04:41:07.763Z,95.90
2022-12-19T04:43:34.607Z,95.80
2022-12-19T04:46:01.619Z,95.80
2022-12-19T04:48:28.383Z,95.80
2022-12-19T04:50:55.976Z,95.90
2022-12-19T04:53:22.751Z,95.90
2022-12-19T04:55:49.549Z,95.80
2022-12-19T04:58:21.632Z,95.80
2022-12-19T05:00:48.994Z,95.80
2022-12-19T05:03:15.888Z,95.80
2022-12-19T05:05:42.836Z,95.80
2022-12-19T05:08:10.093Z,95.80
2022-12-19T05:10:37.070Z,95.80
2022-12-19T05:13:04.032Z,95.80
2022-12-19T05:15:30.887Z,95.80
2022-12-19T05:17:57.832Z,95.80
2022-12-19T05:20:24.705Z,95.80
2022-12-19T05:22:51.415Z,95.80
2022-12-19T05:25:18.096Z,95.80
2022-12-19T05:27:44.944Z,95.80
2022-12-19T05:30:16.822Z,95.80
2022-12-19T05:32:43.541Z,95.90
2022-12-19T05:35:10.273Z,95.90
2022-12-19T05:37:37.036Z,95.80
2022-12-19T05:40:03.909Z,95.90
2022-12-19T05:42:30.650Z,95.90
2022-12-19T05:44:57.997Z,95.90
2022-12-19T05:47:25.189Z,95.90
2022-12-19T05:49:52.024Z,95.90
2022-12-19T05:52:18.832Z,95.90
2022-12-19T05:54:45.774Z,96.20
2022-12-19T05:57:12.633Z,95.80
2022-12-19T05:59:39.413Z,95.80
2022-12-19T06:02:06.339Z,95.80
2022-12-19T06:04:33.238Z,95.90
2022-12-19T06:06:59.988Z,95.90
2022-12-19T06:09:26.759Z,95.90
2022-12-19T06:11:53.654Z,95.80
2022-12-19T06:14:20.587Z,95.90
2022-12-19T06:16:47.313Z,95.80
2022-12-19T06:19:14.226Z,95.90
2022-12-19T06:21:47.922Z,95.80
2022-12-19T06:24:15.127Z,95.90
2022-12-19T06:26:42.063Z,95.90
2022-12-19T06:29:08.960Z,95.90
2022-12-19T06:31:35.805Z,95.90
2022-12-19T06:34:02.695Z,95.90
2022-12-19T06:36:30.071Z,95.90
2022-12-19T06:39:00.527Z,95.90
2022-12-19T06:41:46.011Z,95.90
2022-12-19T06:44:13.949Z,95.90
2022-12-19T06:46:41.870Z,95.90
2022-12-19T06:49:09.161Z,95.90
2022-12-19T06:51:36.085Z,95.90
2022-12-19T06:54:02.867Z,95.90
2022-12-19T06:56:34.033Z,95.90
2022-12-19T06:59:00.933Z,95.90
2022-12-19T07:01:42.254Z,95.90
2022-12-19T07:04:09.729Z,95.90
2022-12-19T07:06:36.546Z,95.90
2022-12-19T07:09:03.470Z,95.90
2022-12-19T07:11:30.348Z,95.90
2022-12-19T07:13:57.160Z,95.90
2022-12-19T07:16:24.818Z,95.90
2022-12-19T07:18:51.820Z,95.90
2022-12-19T07:21:18.548Z,95.90
2022-12-19T07:23:45.346Z,95.90
2022-12-19T07:26:12.331Z,95.90
2022-12-19T07:28:39.317Z,95.90
2022-12-19T07:31:06.138Z,95.90
2022-12-19T07:33:33.015Z,95.90
2022-12-19T07:35:59.880Z,95.90
2022-12-19T07:38:26.758Z,95.90
2022-12-19T07:40:53.807Z,95.80
2022-12-19T07:43:20.574Z,95.80
2022-12-19T07:45:47.447Z,95.80
2022-12-19T07:48:14.330Z,95.80
2022-12-19T07:50:41.773Z,95.80
2022-12-19T07:53:08.494Z,95.80
2022-12-19T07:55:35.399Z,95.90
2022-12-19T07:58:02.346Z,95.90
2022-12-19T08:00:30.656Z,95.90
2022-12-19T08:03:00.247Z,95.90
2022-12-19T08:05:26.997Z,95.90
2022-12-19T08:07:54.012Z,95.90
2022-12-19T08:10:22.858Z,95.80
2022-12-19T08:12:49.590Z,95.80
2022-12-19T08:15:16.310Z,95.90
2022-12-19T08:17:43.249Z,96.10
2022-12-19T08:20:11.603Z,95.90
2022-12-19T08:22:38.367Z,95.90
2022-12-19T08:25:06.752Z,95.90
2022-12-19T08:27:34.718Z,95.90
2022-12-19T08:30:01.453Z,95.90
2022-12-19T08:32:29.832Z,95.90
2022-12-19T08:34:56.763Z,95.90
2022-12-19T08:37:23.534Z,95.90
2022-12-19T08:39:50.425Z,95.80
2022-12-19T08:42:17.302Z,95.90
2022-12-19T08:44:44.183Z,95.90
2022-12-19T08:47:11.007Z,95.90
2022-12-19T08:49:37.975Z,95.90
2022-12-19T08:52:04.751Z,95.90
2022-12-19T08:54:31.552Z,95.90
2022-12-19T08:56:58.435Z,95.90
2022-12-19T08:59:31.198Z,95.90
2022-12-19T09:02:00.075Z,96.00
2022-12-19T09:05:39.522Z,95.90
2022-12-19T09:07:15.337Z,96.00
2022-12-19T09:09:43.055Z,95.90
2022-12-19T09:12:09.820Z,95.90
2022-12-19T09:14:36.854Z,95.90
2022-12-19T09:17:04.761Z,95.90
2022-12-19T09:19:32.072Z,95.90
2022-12-19T09:21:59.554Z,95.90
2022-12-19T09:24:26.395Z,95.90
2022-12-19T09:26:53.208Z,95.90
2022-12-19T09:29:21.832Z,96.20
2022-12-19T09:31:56.108Z,95.90
2022-12-19T09:34:38.054Z,95.90
2022-12-19T09:37:15.819Z,95.90
2022-12-19T09:39:43.703Z,95.90
2022-12-19T09:42:17.579Z,95.90
2022-12-19T09:44:53.429Z,95.90
2022-12-19T09:47:23.425Z,95.90
2022-12-19T09:49:51.423Z,95.80
2022-12-19T09:52:18.246Z,95.90
2022-12-19T09:54:54.256Z,95.90
2022-12-19T09:57:26.591Z,95.90
2022-12-19T09:59:59.491Z,95.90
2022-12-19T10:02:37.511Z,95.90
2022-12-19T10:05:31.307Z,95.90
2022-12-19T10:08:07.613Z,95.90
2022-12-19T10:12:37.359Z,95.90
2022-12-19T10:13:40.501Z,95.90
2022-12-19T10:16:07.371Z,96.00
2022-12-19T10:18:56.741Z,95.90
2022-12-19T10:22:16.185Z,95.90
2022-12-19T10:24:38.415Z,95.90
2022-12-19T10:27:12.301Z,95.90
2022-12-19T10:29:52.494Z,95.90
2022-12-19T10:32:31.447Z,95.90
2022-12-19T10:34:58.446Z,95.90
2022-12-19T10:37:32.754Z,95.90
2022-12-19T10:40:28.364Z,95.90
2022-12-19T10:42:58.726Z,95.90
2022-12-19T10:45:32.320Z,95.90
2022-12-19T10:47:59.044Z,95.90
2022-12-19T10:50:27.411Z,95.90
2022-12-19T10:53:03.271Z,95.90
2022-12-19T10:55:34.215Z,95.90
2022-12-19T10:58:10.077Z,95.90
2022-12-19T11:00:36.841Z,95.90
2022-12-19T11:03:19.237Z,95.90
2022-12-19T11:05:50.716Z,95.90
2022-12-19T11:08:31.464Z,96.00
2022-12-19T11:12:16.033Z,95.90
2022-12-19T11:18:58.005Z,95.90
2022-12-19T11:21:21.969Z,96.00
2022-12-19T11:29:15.441Z,95.90
2022-12-19T11:29:36.581Z,95.90
2022-12-19T11:30:35.540Z,95.90
2022-12-19T11:30:47.268Z,95.90
2022-12-19T11:33:27.913Z,95.90
2022-12-19T11:35:56.218Z,95.90
2022-12-19T11:38:35.093Z,95.90
2022-12-19T11:41:08.434Z,95.80
2022-12-19T11:43:45.377Z,95.90
2022-12-19T11:46:25.667Z,95.90
2022-12-19T11:49:11.276Z,95.90
2022-12-19T11:51:40.094Z,95.90
2022-12-19T11:54:07.313Z,95.90
2022-12-19T11:56:34.227Z,95.90
2022-12-19T11:59:02.657Z,95.90
2022-12-19T12:01:29.374Z,96.00
2022-12-19T12:04:03.232Z,96.00
2022-12-19T12:06:50.461Z,95.90
2022-12-19T12:14:25.783Z,95.90
2022-12-19T12:20:44.998Z,95.90
2022-12-19T12:27:24.910Z,95.90
2022-12-19T12:31:05.201Z,95.90
2022-12-19T12:31:25.893Z,95.90
2022-12-19T12:31:31.950Z,96.00
2022-12-19T12:31:45.831Z,96.00
2022-12-19T12:31:46.586Z,95.90
2022-12-19T12:35:29.285Z,95.90
2022-12-19T12:39:04.876Z,95.90
2022-12-19T12:41:50.473Z,95.90
2022-12-19T12:44:32.692Z,95.90
2022-12-19T12:47:20.661Z,96.00
2022-12-19T12:49:54.457Z,95.90
2022-12-19T12:52:32.580Z,96.00
2022-12-19T12:54:59.509Z,96.00
2022-12-19T12:57:30.086Z,96.00
2022-12-19T13:00:18.258Z,96.00
2022-12-19T13:02:51.404Z,95.90
2022-12-19T13:05:29.858Z,96.20
2022-12-19T13:07:56.831Z,95.90
2022-12-19T13:10:25.748Z,95.90
2022-12-19T13:13:00.548Z,96.00
2022-12-19T13:15:32.517Z,95.90
2022-12-19T13:18:09.383Z,96.00
2022-12-19T13:20:42.214Z,95.90
2022-12-19T13:23:34.711Z,96.00
2022-12-19T13:26:01.636Z,95.90
2022-12-19T13:28:28.562Z,96.00
2022-12-19T13:31:21.130Z,96.00
2022-12-19T13:33:55.785Z,96.20
2022-12-19T13:39:47.603Z,95.90
2022-12-19T13:40:01.457Z,95.90
2022-12-19T13:42:35.505Z,95.90
2022-12-19T13:45:08.702Z,96.00
2022-12-19T13:47:38.453Z,96.00
2022-12-19T13:50:23.641Z,96.00
2022-12-19T13:52:51.213Z,96.00
2022-12-19T13:55:18.098Z,95.90
2022-12-19T13:57:47.145Z,96.00
2022-12-19T14:00:17.822Z,96.00
2022-12-19T14:02:50.350Z,96.00
2022-12-19T14:05:31.945Z,96.00
2022-12-19T14:08:07.575Z,96.00
2022-12-19T14:11:33.794Z,96.00
2022-12-19T14:13:59.121Z,95.90
2022-12-19T14:16:39.785Z,96.00
2022-12-19T14:19:28.933Z,96.00
2022-12-19T14:22:15.893Z,96.00
2022-12-19T14:25:07.022Z,96.00
2022-12-19T14:28:24.866Z,96.10
2022-12-19T14:30:45.201Z,96.00
2022-12-19T14:33:46.086Z,96.00
2022-12-19T14:36:14.630Z,96.00
2022-12-19T14:39:27.143Z,95.90
2022-12-19T14:42:01.089Z,96.00
2022-12-19T14:52:08.521Z,96.00
2022-12-19T14:53:08.382Z,96.00
2022-12-19T14:54:37.731Z,96.00
2022-12-19T14:54:40.480Z,96.00
2022-12-19T14:59:17.398Z,96.00
2022-12-19T15:01:51.373Z,96.00
2022-12-19T15:04:53.256Z,96.00
2022-12-19T15:07:43.682Z,96.00
2022-12-19T15:10:58.090Z,96.00
2022-12-19T15:14:56.371Z,96.10
2022-12-19T15:16:29.526Z,96.00
2022-12-19T15:18:57.575Z,96.00
2022-12-19T15:21:24.346Z,96.00
2022-12-19T15:23:51.251Z,96.00
2022-12-19T15:26:20.103Z,96.00
2022-12-19T15:28:49.827Z,96.00
2022-12-19T15:31:38.774Z,96.00
2022-12-19T15:34:35.461Z,96.00
2022-12-19T15:37:03.982Z,96.00
2022-12-19T15:39:30.839Z,96.00
2022-12-19T15:41:59.409Z,96.00
2022-12-19T15:44:40.342Z,96.10
2022-12-19T15:47:30.108Z,96.00
2022-12-19T15:49:58.406Z,96.00
2022-12-19T15:52:25.734Z,96.00
2022-12-19T15:54:52.681Z,95.90
2022-12-19T15:57:24.734Z,96.00
2022-12-19T15:59:52.041Z,96.00
2022-12-19T16:02:21.824Z,96.30
2022-12-19T16:04:50.313Z,96.00
2022-12-19T16:07:21.231Z,96.00
2022-12-19T16:09:49.118Z,96.00
2022-12-19T16:12:17.914Z,96.00
2022-12-19T16:14:45.445Z,96.00
2022-12-19T16:17:15.204Z,96.00
2022-12-19T16:19:42.032Z,96.00
2022-12-19T16:22:16.924Z,96.00
2022-12-19T16:24:44.054Z,96.00
2022-12-19T16:27:16.872Z,96.10
2022-12-19T16:29:43.632Z,96.10
2022-12-19T16:32:12.638Z,96.00
2022-12-19T16:34:39.400Z,96.10
2022-12-19T16:37:06.573Z,96.10
2022-12-19T16:39:33.528Z,96.10
2022-12-19T16:42:00.477Z,96.00
2022-12-19T16:44:30.983Z,96.00
2022-12-19T16:46:57.894Z,96.00
2022-12-19T16:49:24.690Z,96.00
2022-12-19T16:51:51.794Z,96.00
2022-12-19T16:54:18.949Z,96.10
2022-12-19T16:56:49.414Z,96.00
2022-12-19T16:59:16.336Z,96.00
2022-12-19T17:01:44.307Z,96.10
2022-12-19T17:04:15.199Z,96.00
2022-12-19T17:06:42.517Z,96.00
2022-12-19T17:09:13.453Z,96.10
2022-12-19T17:11:40.686Z,96.10
2022-12-19T17:14:11.134Z,96.00
2022-12-19T17:16:38.377Z,96.00
2022-12-19T17:19:05.220Z,96.10
2022-12-19T17:21:32.447Z,96.00
2022-12-19T17:23:59.753Z,96.00
2022-12-19T17:26:27.170Z,96.10
2022-12-19T17:28:56.280Z,96.10
2022-12-19T17:31:26.074Z,96.00
2022-12-19T17:33:55.815Z,96.10
2022-12-19T17:36:31.198Z,96.10
2022-12-19T17:39:01.927Z,96.00
2022-12-19T17:41:29.022Z,96.00
2022-12-19T17:43:59.800Z,96.00
2022-12-19T17:46:27.572Z,96.10
2022-12-19T17:48:55.559Z,96.00
2022-12-19T17:51:26.026Z,96.00
2022-12-19T17:53:54.231Z,96.00
2022-12-19T17:56:26.046Z,96.10
2022-12-19T17:58:52.890Z,96.10
2022-12-19T18:01:24.131Z,96.10
2022-12-19T18:03:52.399Z,96.00
2022-12-19T18:06:19.240Z,96.10
2022-12-19T18:08:45.992Z,96.00
2022-12-19T18:11:17.561Z,96.10
2022-12-19T18:13:44.606Z,96.00
2022-12-19T18:16:12.500Z,96.10
2022-12-19T18:18:39.671Z,96.10
2022-12-19T18:21:06.957Z,96.10
2022-12-19T18:23:33.804Z,96.00
2022-12-19T18:26:02.591Z,96.00
2022-12-19T18:28:29.815Z,96.10
2022-12-19T18:30:59.313Z,96.10
2022-12-19T18:33:26.642Z,96.10
2022-12-19T18:35:53.478Z,96.10
2022-12-19T18:38:21.144Z,96.10
2022-12-19T18:40:48.835Z,96.10
2022-12-19T18:43:16.314Z,96.00
2022-12-19T18:45:44.248Z,96.10
2022-12-19T18:48:20.609Z,96.10
2022-12-19T18:50:47.351Z,96.10
2022-12-19T18:53:15.718Z,96.10
2022-12-19T18:55:42.555Z,96.10
2022-12-19T18:58:09.304Z,96.10
2022-12-19T19:00:37.848Z,96.10
2022-12-19T19:03:06.640Z,96.10
2022-12-19T19:05:34.927Z,96.10
2022-12-19T19:08:21.946Z,96.10
2022-12-19T19:10:49.605Z,96.10
2022-12-19T19:13:17.026Z,96.10
2022-12-19T19:15:48.241Z,96.10
2022-12-19T19:18:16.796Z,96.20
2022-12-19T19:20:44.655Z,96.10
2022-12-19T19:23:12.504Z,96.10
2022-12-19T19:25:39.255Z,96.10
2022-12-19T19:28:06.036Z,96.10
2022-12-19T19:30:34.644Z,96.20
2022-12-19T19:33:05.432Z,96.10
2022-12-19T19:35:32.200Z,96.10
2022-12-19T19:38:00.790Z,96.10
2022-12-19T19:40:27.560Z,96.10
2022-12-19T19:42:54.404Z,96.10
2022-12-19T19:45:21.328Z,96.10
2022-12-19T19:47:48.124Z,96.40
2022-12-19T19:50:14.925Z,96.20
2022-12-19T19:52:41.754Z,96.10
2022-12-19T19:55:09.357Z,96.10
2022-12-19T19:57:36.713Z,96.10
2022-12-19T20:00:07.161Z,96.10
2022-12-19T20:02:34.080Z,96.10
2022-12-19T20:05:00.963Z,96.10
2022-12-19T20:07:28.004Z,96.10
2022-12-19T20:09:54.714Z,96.10
2022-12-19T20:12:21.456Z,96.10
2022-12-19T20:14:48.265Z,96.10
2022-12-19T20:17:14.974Z,96.10
2022-12-19T20:19:41.753Z,96.10
2022-12-19T20:22:08.561Z,96.10
2022-12-19T20:24:35.276Z,96.10
2022-12-19T20:27:02.002Z,96.20
2022-12-19T20:29:28.802Z,96.10
2022-12-19T20:31:56.486Z,96.10
2022-12-19T20:34:23.475Z,96.20
2022-12-19T20:36:50.308Z,96.20
2022-12-19T20:39:21.957Z,96.10
2022-12-19T20:41:52.956Z,96.20
2022-12-19T20:44:24.054Z,96.20
2022-12-19T20:46:51.863Z,96.10
2022-12-19T20:49:18.865Z,96.20
2022-12-19T20:51:47.702Z,96.20
2022-12-19T20:54:15.895Z,96.10
2022-12-19T20:56:43.088Z,96.20
2022-12-19T20:59:10.424Z,96.20
2022-12-19T21:01:38.020Z,96.10
2022-12-19T21:04:05.252Z,96.20
2022-12-19T21:06:32.187Z,96.20
2022-12-19T21:08:59.113Z,96.20
2022-12-19T21:11:26.669Z,96.10
2022-12-19T21:13:53.732Z,96.20
2022-12-19T21:16:21.866Z,96.20
2022-12-19T21:18:49.937Z,96.20
2022-12-19T21:21:23.679Z,96.20
2022-12-19T21:23:50.772Z,96.10
2022-12-19T21:26:18.001Z,96.10
2022-12-19T21:28:45.036Z,96.10
2022-12-19T21:31:13.538Z,96.10
2022-12-19T21:33:40.402Z,96.10
2022-12-19T21:36:11.586Z,96.20
2022-12-19T21:38:38.572Z,96.20
2022-12-19T21:41:06.090Z,96.10
2022-12-19T21:43:36.766Z,96.10
2022-12-19T21:46:04.499Z,96.20
2022-12-19T21:48:34.719Z,96.10
2022-12-19T21:51:01.478Z,96.10
2022-12-19T21:53:28.256Z,96.20
2022-12-19T21:56:01.618Z,96.10
2022-12-19T21:58:28.338Z,96.10
2022-12-19T22:01:07.882Z,96.10
2022-12-19T22:03:35.392Z,96.20
2022-12-19T22:06:02.245Z,96.20
2022-12-19T22:08:28.990Z,96.20
2022-12-19T22:10:55.829Z,96.20
2022-12-19T22:13:22.755Z,96.20
2022-12-19T22:15:49.561Z,96.20
2022-12-19T22:18:16.475Z,96.20
2022-12-19T22:20:43.368Z,96.20
2022-12-19T22:23:13.341Z,96.20
2022-12-19T22:25:40.491Z,96.20
2022-12-19T22:28:07.445Z,96.20
2022-12-19T22:30:35.567Z,96.20
2022-12-19T22:33:03.702Z,96.20
2022-12-19T22:35:30.686Z,96.20
2022-12-19T22:37:57.508Z,96.20
2022-12-19T22:40:24.425Z,96.20
2022-12-19T22:42:51.736Z,96.20
2022-12-19T22:45:18.507Z,96.20
2022-12-19T22:47:45.442Z,96.20
2022-12-19T22:50:12.207Z,96.10
2022-12-19T22:52:39.618Z,96.20
2022-12-19T22:55:07.003Z,96.20
2022-12-19T22:57:33.810Z,96.20
2022-12-19T23:00:00.549Z,96.20
2022-12-19T23:02:27.587Z,96.20
2022-12-19T23:04:54.452Z,96.20
2022-12-19T23:07:21.231Z,96.20
2022-12-19T23:09:48.060Z,96.20
2022-12-19T23:12:14.817Z,96.20
2022-12-19T23:14:41.564Z,96.20
2022-12-19T23:17:08.506Z,96.20
2022-12-19T23:19:35.292Z,96.20
2022-12-19T23:22:02.085Z,96.20
2022-12-19T23:24:29.035Z,96.20
2022-12-19T23:26:55.748Z,96.20
2022-12-19T23:29:22.455Z,96.20
2022-12-19T23:31:49.244Z,96.20
2022-12-19T23:34:16.159Z,96.20
2022-12-19T23:37:10.158Z,96.20
2022-12-19T23:39:29.718Z,96.20
2022-12-19T23:41:56.458Z,96.20
2022-12-19T23:44:23.212Z,96.20
2022-12-19T23:46:50.031Z,96.20
2022-12-19T23:49:16.881Z,96.20
2022-12-19T23:51:43.635Z,96.20
2022-12-19T23:54:10.439Z,96.20
2022-12-19T23:56:37.207Z,96.20
2022-12-19T23:59:04.091Z,96.20
